createdAt,value
2022-09-11T00:01:30.616Z,7.20
2022-09-11T00:03:57.483Z,8.40
2022-09-11T00:06:29.771Z,6.80
2022-09-11T00:09:00.471Z,11.00
2022-09-11T00:11:30.125Z,6.70
2022-09-11T00:13:57.638Z,6.00
2022-09-11T00:16:34.064Z,7.70
2022-09-11T00:19:06.043Z,8.00
2022-09-11T00:21:36.111Z,8.00
2022-09-11T00:24:03.768Z,8.00
2022-09-11T00:26:30.569Z,9.10
2022-09-11T00:28:57.531Z,6.80
2022-09-11T00:31:27.349Z,6.30
2022-09-11T00:33:54.557Z,7.20
2022-09-11T00:36:30.929Z,5.80
2022-09-11T00:38:58.890Z,5.10
2022-09-11T00:41:30.505Z,9.00
2022-09-11T00:44:18.333Z,9.00
2022-09-11T00:46:57.819Z,8.50
2022-09-11T00:49:30.363Z,7.40
2022-09-11T00:54:43.828Z,8.30
2022-09-11T00:57:10.744Z,10.30
2022-09-11T00:59:41.425Z,8.30
2022-09-11T01:02:13.216Z,5.20
2022-09-11T01:04:39.905Z,4.70
2022-09-11T01:07:06.440Z,7.40
2022-09-11T01:09:33.599Z,7.80
2022-09-11T01:12:12.165Z,7.00
2022-09-11T01:14:41.761Z,4.60
2022-09-11T01:17:26.577Z,11.20
2022-09-11T01:20:23.511Z,9.40
2022-09-11T01:23:08.622Z,7.50
2022-09-11T01:25:52.292Z,7.30
2022-09-11T01:28:47.050Z,6.90
2022-09-11T01:31:19.766Z,12.10
2022-09-11T01:33:55.979Z,7.20
2022-09-11T01:36:48.206Z,11.10
2022-09-11T01:39:17.635Z,6.90
2022-09-11T01:41:53.834Z,8.10
2022-09-11T01:44:52.338Z,8.80
2022-09-11T01:47:21.155Z,5.30
2022-09-11T01:49:56.727Z,4.70
2022-09-11T01:52:30.459Z,6.00
2022-09-11T01:55:09.097Z,6.00
2022-09-11T01:57:59.985Z,6.60
2022-09-11T02:00:27.664Z,6.80
2022-09-11T02:03:03.468Z,5.90
2022-09-11T02:05:38.001Z,10.20
2022-09-11T02:08:12.388Z,8.80
2022-09-11T02:10:45.794Z,4.30
2022-09-11T02:13:39.577Z,5.30
2022-09-11T02:16:22.611Z,7.50
2022-09-11T02:19:00.502Z,4.90
2022-09-11T02:21:27.298Z,5.80
2022-09-11T02:23:54.876Z,4.60
2022-09-11T02:26:25.327Z,9.80
2022-09-11T02:28:53.693Z,11.20
2022-09-11T02:31:22.224Z,7.50
2022-09-11T02:33:50.682Z,5.40
2022-09-11T02:36:35.142Z,6.90
2022-09-11T02:39:16.027Z,4.90
2022-09-11T02:42:08.046Z,5.90
2022-09-11T02:44:49.813Z,10.00
2022-09-11T02:47:36.688Z,6.70
2022-09-11T02:50:12.708Z,8.40
2022-09-11T02:52:47.473Z,9.90
2022-09-11T02:55:24.731Z,7.10
2022-09-11T02:58:02.003Z,6.30
2022-09-11T03:00:30.091Z,4.80
2022-09-11T03:02:57.445Z,9.40
2022-09-11T03:05:24.141Z,6.40
2022-09-11T03:07:51.359Z,11.00
2022-09-11T03:10:18.035Z,8.10
2022-09-11T03:12:44.603Z,11.40
2022-09-11T03:15:11.591Z,7.50
2022-09-11T03:17:38.439Z,7.40
2022-09-11T03:20:05.791Z,10.30
2022-09-11T03:22:32.493Z,7.00
2022-09-11T03:24:59.315Z,10.90
2022-09-11T03:27:27.161Z,5.50
2022-09-11T03:29:53.813Z,8.30
2022-09-11T03:32:22.413Z,7.60
2022-09-11T03:34:49.081Z,6.80
2022-09-11T03:37:15.871Z,10.70
2022-09-11T03:39:42.962Z,6.40
2022-09-11T03:42:12.427Z,6.20
2022-09-11T03:44:40.466Z,9.40
2022-09-11T03:47:11.433Z,8.70
2022-09-11T03:49:38.309Z,5.80
2022-09-11T03:52:05.200Z,12.70
2022-09-11T03:54:32.367Z,10.60
2022-09-11T03:57:00.941Z,7.90
2022-09-11T03:59:28.627Z,8.20
2022-09-11T04:01:55.450Z,4.90
2022-09-11T04:04:23.377Z,6.40
2022-09-11T04:06:50.971Z,6.20
2022-09-11T04:09:18.163Z,7.70
2022-09-11T04:11:47.023Z,8.90
2022-09-11T04:14:18.736Z,9.60
2022-09-11T04:16:45.492Z,10.10
2022-09-11T04:19:12.753Z,8.60
2022-09-11T04:21:41.682Z,12.60
2022-09-11T04:24:09.790Z,6.00
2022-09-11T04:26:37.418Z,8.20
2022-09-11T04:29:24.111Z,7.00
2022-09-11T04:31:50.992Z,5.80
2022-09-11T04:34:18.687Z,10.40
2022-09-11T04:36:45.440Z,8.20
2022-09-11T04:39:15.499Z,7.70
2022-09-11T04:41:43.884Z,10.80
2022-09-11T04:44:10.593Z,12.30
2022-09-11T04:46:41.879Z,10.00
2022-09-11T04:49:10.216Z,8.70
2022-09-11T04:51:38.696Z,10.90
2022-09-11T04:54:07.212Z,9.10
2022-09-11T04:56:37.637Z,13.60
2022-09-11T04:59:16.874Z,4.90
2022-09-11T05:01:51.566Z,8.00
2022-09-11T05:04:20.039Z,11.20
2022-09-11T05:06:49.621Z,4.70
2022-09-11T05:09:17.578Z,4.60
2022-09-11T05:11:45.943Z,5.20
2022-09-11T05:14:12.769Z,7.10
2022-09-11T05:16:40.914Z,6.60
2022-09-11T05:19:08.903Z,6.30
2022-09-11T05:21:36.201Z,7.80
2022-09-11T05:24:03.913Z,8.50
2022-09-11T05:26:35.148Z,8.50
2022-09-11T05:29:11.620Z,7.00
2022-09-11T05:31:45.368Z,6.50
2022-09-11T05:34:13.675Z,6.50
2022-09-11T05:36:40.978Z,8.00
2022-09-11T05:39:08.883Z,9.10
2022-09-11T05:41:36.779Z,4.00
2022-09-11T05:44:03.500Z,4.90
2022-09-11T05:46:30.339Z,5.10
2022-09-11T05:48:59.094Z,7.00
2022-09-11T05:51:26.678Z,7.00
2022-09-11T05:53:54.931Z,6.80
2022-09-11T05:56:24.065Z,5.70
2022-09-11T05:58:54.304Z,10.10
2022-09-11T06:01:27.800Z,6.40
2022-09-11T06:04:09.128Z,4.20
2022-09-11T06:06:35.804Z,5.00
2022-09-11T06:09:03.924Z,7.20
2022-09-11T06:11:32.351Z,7.20
2022-09-11T06:13:59.655Z,8.10
2022-09-11T06:16:26.416Z,5.90
2022-09-11T06:18:55.348Z,6.60
2022-09-11T06:21:24.315Z,10.80
2022-09-11T06:23:59.473Z,6.80
2022-09-11T06:26:26.741Z,6.10
2022-09-11T06:29:02.587Z,7.30
2022-09-11T06:31:29.597Z,10.30
2022-09-11T06:33:56.484Z,6.90
2022-09-11T06:36:29.449Z,4.50
2022-09-11T06:38:57.879Z,10.20
2022-09-11T06:41:27.624Z,9.40
2022-09-11T06:44:02.038Z,5.20
2022-09-11T06:46:29.271Z,3.40
2022-09-11T06:48:56.999Z,6.60
2022-09-11T06:51:27.182Z,5.50
2022-09-11T06:53:58.775Z,4.40
2022-09-11T06:56:31.839Z,5.30
2022-09-11T06:58:59.413Z,5.10
2022-09-11T07:01:27.935Z,4.80
2022-09-11T07:03:58.022Z,7.60
2022-09-11T07:06:27.244Z,3.70
2022-09-11T07:09:01.036Z,6.60
2022-09-11T07:11:34.178Z,4.20
2022-09-11T07:14:05.764Z,4.60
2022-09-11T07:16:35.731Z,6.00
2022-09-11T07:19:09.079Z,5.50
2022-09-11T07:21:36.607Z,3.10
2022-09-11T07:24:03.770Z,3.70
2022-09-11T07:26:35.777Z,4.50
2022-09-11T07:29:07.022Z,6.20
2022-09-11T07:31:38.263Z,3.20
2022-09-11T07:34:05.185Z,4.10
2022-09-11T07:36:34.210Z,7.40
2022-09-11T07:39:03.615Z,1.40
2022-09-11T07:41:43.077Z,3.00
2022-09-11T07:44:15.790Z,6.10
2022-09-11T07:46:42.427Z,4.90
2022-09-11T07:49:10.739Z,4.10
2022-09-11T07:51:38.607Z,4.90
2022-09-11T07:54:06.566Z,2.30
2022-09-11T07:56:35.562Z,2.60
2022-09-11T07:59:07.271Z,5.60
2022-09-11T08:01:34.515Z,3.10
2022-09-11T08:04:07.515Z,2.20
2022-09-11T08:06:36.644Z,4.00
2022-09-11T08:09:10.359Z,1.80
2022-09-11T08:11:42.365Z,5.10
2022-09-11T08:14:12.893Z,6.30
2022-09-11T08:16:41.200Z,3.20
2022-09-11T08:19:14.365Z,3.50
2022-09-11T08:21:40.897Z,6.50
2022-09-11T08:24:07.628Z,4.30
2022-09-11T08:26:36.241Z,3.30
2022-09-11T08:29:03.302Z,5.10
2022-09-11T08:31:33.213Z,9.40
2022-09-11T08:34:01.149Z,9.30
2022-09-11T08:36:29.119Z,8.30
2022-09-11T08:38:59.845Z,5.80
2022-09-11T08:41:46.759Z,8.00
2022-09-11T08:44:27.682Z,4.60
2022-09-11T08:47:09.235Z,5.80
2022-09-11T08:49:42.808Z,4.30
2022-09-11T08:52:13.874Z,5.70
2022-09-11T08:54:43.361Z,5.40
2022-09-11T08:57:18.166Z,3.70
2022-09-11T09:00:24.843Z,2.20
2022-09-11T09:03:21.596Z,5.20
2022-09-11T09:06:10.948Z,3.80
2022-09-11T09:08:49.604Z,2.50
2022-09-11T09:11:47.232Z,4.00
2022-09-11T09:14:20.207Z,2.30
2022-09-11T09:16:47.015Z,2.70
2022-09-11T09:19:33.351Z,1.50
2022-09-11T09:22:09.499Z,5.20
2022-09-11T09:24:43.026Z,3.20
2022-09-11T09:27:17.240Z,2.10
2022-09-11T09:29:47.432Z,2.20
2022-09-11T09:32:21.912Z,2.00
2022-09-11T09:34:53.184Z,2.20
2022-09-11T09:37:22.223Z,2.80
2022-09-11T09:39:50.792Z,1.90
2022-09-11T09:42:37.633Z,3.30
2022-09-11T09:45:19.660Z,2.50
2022-09-11T09:47:48.556Z,1.20
2022-09-11T09:50:19.644Z,3.20
2022-09-11T09:52:49.288Z,3.00
2022-09-11T09:55:20.772Z,4.20
2022-09-11T09:57:47.699Z,2.10
2022-09-11T10:00:19.527Z,1.80
2022-09-11T10:02:55.900Z,1.30
2022-09-11T10:05:41.758Z,1.30
2022-09-11T10:08:26.844Z,2.10
2022-09-11T10:10:59.758Z,1.00
2022-09-11T10:13:30.283Z,2.30
2022-09-11T10:15:59.371Z,1.00
2022-09-11T10:18:32.486Z,1.40
2022-09-11T10:21:29.887Z,2.30
2022-09-11T10:23:58.189Z,1.70
2022-09-11T10:26:35.045Z,2.10
2022-09-11T10:29:10.902Z,2.70
2022-09-11T10:31:51.352Z,3.00
2022-09-11T10:34:21.760Z,2.20
2022-09-11T10:36:54.354Z,1.70
2022-09-11T10:39:23.773Z,1.60
2022-09-11T10:41:54.408Z,1.70
2022-09-11T10:44:23.408Z,2.60
2022-09-11T10:47:16.827Z,3.00
2022-09-11T10:49:44.480Z,2.20
2022-09-11T10:52:11.173Z,2.20
2022-09-11T10:54:56.796Z,0.60
2022-09-11T10:57:43.735Z,1.10
2022-09-11T11:00:23.725Z,0.80
2022-09-11T11:02:55.516Z,3.50
2022-09-11T11:05:33.070Z,1.60
2022-09-11T11:08:20.803Z,2.00
2022-09-11T11:10:55.833Z,2.30
2022-09-11T11:13:46.437Z,1.50
2022-09-11T11:16:34.419Z,2.20
2022-09-11T11:19:23.290Z,1.80
2022-09-11T11:22:17.517Z,2.50
2022-09-11T11:24:50.752Z,2.10
2022-09-11T11:27:37.448Z,1.70
2022-09-11T11:30:23.521Z,1.50
2022-09-11T11:33:21.855Z,5.50
2022-09-11T11:36:14.873Z,2.90
2022-09-11T11:39:01.371Z,1.50
2022-09-11T11:41:44.696Z,3.20
2022-09-11T11:44:18.041Z,2.00
2022-09-11T11:46:49.205Z,1.90
2022-09-11T11:49:22.719Z,1.00
2022-09-11T11:51:56.554Z,1.50
2022-09-11T11:54:29.772Z,4.80
2022-09-11T11:57:04.535Z,1.90
2022-09-11T11:59:54.231Z,0.70
2022-09-11T12:02:27.216Z,1.30
2022-09-11T12:05:00.433Z,3.40
2022-09-11T12:07:30.933Z,2.30
2022-09-11T12:10:00.916Z,0.80
2022-09-11T12:12:34.040Z,1.40
2022-09-11T12:15:08.050Z,1.40
2022-09-11T12:17:43.937Z,1.50
2022-09-11T12:20:10.445Z,5.50
2022-09-11T12:22:49.159Z,4.00
2022-09-11T12:25:18.564Z,4.20
2022-09-11T12:27:55.034Z,5.20
2022-09-11T12:30:27.753Z,6.60
2022-09-11T12:35:37.685Z,3.20
2022-09-11T12:38:08.387Z,5.70
2022-09-11T12:40:49.470Z,4.00
2022-09-11T12:43:20.023Z,8.40
2022-09-11T12:45:47.901Z,4.60
2022-09-11T12:48:21.287Z,7.40
2022-09-11T12:50:51.010Z,2.10
2022-09-11T12:53:24.092Z,2.90
2022-09-11T12:56:04.072Z,3.60
2022-09-11T12:58:38.705Z,1.50
2022-09-11T13:01:09.238Z,5.80
2022-09-11T13:03:38.363Z,2.80
2022-09-11T13:06:13.050Z,4.70
2022-09-11T13:08:45.497Z,2.60
2022-09-11T13:11:37.034Z,3.90
2022-09-11T13:16:36.557Z,1.90
2022-09-11T13:19:09.734Z,5.30
2022-09-11T13:21:40.249Z,5.70
2022-09-11T13:24:30.488Z,1.20
2022-09-11T13:27:05.302Z,1.00
2022-09-11T13:29:36.002Z,1.40
2022-09-11T13:32:11.572Z,3.40
2022-09-11T13:34:44.302Z,4.10
2022-09-11T13:37:15.760Z,2.40
2022-09-11T13:39:45.258Z,1.80
2022-09-11T13:42:17.778Z,1.10
2022-09-11T13:44:52.051Z,3.30
2022-09-11T13:47:27.721Z,2.50
2022-09-11T13:50:11.994Z,3.70
2022-09-11T13:52:41.546Z,5.20
2022-09-11T13:55:20.182Z,1.30
2022-09-11T13:58:20.899Z,4.50
2022-09-11T14:00:50.286Z,1.90
2022-09-11T14:03:31.071Z,6.60
2022-09-11T14:06:00.827Z,2.70
2022-09-11T14:08:38.713Z,3.40
2022-09-11T14:11:14.636Z,3.20
2022-09-11T14:13:46.874Z,2.60
2022-09-11T14:16:13.491Z,2.90
2022-09-11T14:18:41.785Z,1.60
2022-09-11T14:21:13.255Z,2.20
2022-09-11T14:23:47.627Z,3.20
2022-09-11T14:26:17.919Z,13.20
2022-09-11T14:29:00.386Z,3.70
2022-09-11T14:31:38.088Z,5.00
2022-09-11T14:34:12.350Z,2.10
2022-09-11T14:36:46.512Z,2.50
2022-09-11T14:39:30.258Z,2.20
2022-09-11T14:41:57.420Z,2.50
2022-09-11T14:44:25.750Z,4.00
2022-09-11T14:46:54.340Z,1.30
2022-09-11T14:49:21.665Z,3.60
2022-09-11T14:52:00.156Z,5.80
2022-09-11T14:54:30.552Z,1.70
2022-09-11T14:57:00.893Z,0.90
2022-09-11T14:59:30.240Z,4.00
2022-09-11T15:01:57.981Z,0.60
2022-09-11T15:04:25.114Z,2.00
2022-09-11T15:06:54.909Z,4.10
2022-09-11T15:09:23.758Z,2.90
2022-09-11T15:11:51.838Z,2.20
2022-09-11T15:14:38.195Z,0.70
2022-09-11T15:17:08.798Z,0.90
2022-09-11T15:19:36.631Z,2.00
2022-09-11T15:22:07.959Z,1.80
2022-09-11T15:24:34.653Z,1.30
2022-09-11T15:27:01.328Z,3.00
2022-09-11T15:29:31.385Z,2.20
2022-09-11T15:32:01.406Z,1.60
2022-09-11T15:34:32.561Z,3.70
2022-09-11T15:36:59.718Z,2.20
2022-09-11T15:39:27.357Z,4.70
2022-09-11T15:41:57.240Z,3.40
2022-09-11T15:44:28.127Z,3.00
2022-09-11T15:46:56.960Z,2.40
2022-09-11T15:49:24.948Z,1.70
2022-09-11T15:51:55.769Z,3.60
2022-09-11T15:54:23.009Z,1.50
2022-09-11T15:56:50.852Z,1.50
2022-09-11T15:59:18.287Z,2.70
2022-09-11T16:01:45.185Z,2.10
2022-09-11T16:04:18.217Z,2.40
2022-09-11T16:06:50.064Z,2.50
2022-09-11T16:09:31.241Z,3.60
2022-09-11T16:12:01.218Z,3.40
2022-09-11T16:14:37.308Z,4.70
2022-09-11T16:17:20.973Z,3.50
2022-09-11T16:19:48.061Z,3.00
2022-09-11T16:22:17.340Z,2.30
2022-09-11T16:24:44.224Z,3.60
2022-09-11T16:27:31.508Z,3.20
2022-09-11T16:32:45.590Z,2.30
2022-09-11T16:35:25.613Z,4.00
2022-09-11T16:37:53.988Z,4.70
2022-09-11T16:40:20.948Z,4.60
2022-09-11T16:42:47.598Z,3.80
2022-09-11T16:45:14.345Z,2.40
2022-09-11T16:47:41.166Z,1.90
2022-09-11T16:50:12.551Z,2.70
2022-09-11T16:52:43.363Z,6.70
2022-09-11T16:55:14.446Z,4.60
2022-09-11T16:57:41.131Z,3.50
2022-09-11T17:00:12.176Z,3.90
2022-09-11T17:02:44.765Z,5.00
2022-09-11T17:05:15.525Z,3.00
2022-09-11T17:07:42.228Z,4.00
2022-09-11T17:10:11.606Z,6.30
2022-09-11T17:12:38.309Z,9.10
2022-09-11T17:15:08.288Z,3.10
2022-09-11T17:17:38.710Z,6.20
2022-09-11T17:20:11.892Z,6.00
2022-09-11T17:22:39.213Z,4.50
2022-09-11T17:25:06.920Z,5.40
2022-09-11T17:27:36.553Z,4.30
2022-09-11T17:30:08.302Z,4.20
2022-09-11T17:32:35.017Z,7.50
2022-09-11T17:35:04.976Z,3.30
2022-09-11T17:37:36.068Z,10.40
2022-09-11T17:40:08.373Z,6.50
2022-09-11T17:45:07.141Z,5.10
2022-09-11T17:47:33.895Z,8.50
2022-09-11T17:50:04.696Z,3.50
2022-09-11T17:52:36.377Z,4.10
2022-09-11T17:55:05.091Z,5.40
2022-09-11T17:57:32.188Z,6.30
2022-09-11T18:00:05.547Z,5.30
2022-09-11T18:02:43.521Z,5.40
2022-09-11T18:05:13.479Z,5.70
2022-09-11T18:07:41.949Z,7.70
2022-09-11T18:10:11.205Z,6.10
2022-09-11T18:12:38.371Z,7.10
2022-09-11T18:15:05.880Z,7.90
2022-09-11T18:17:34.114Z,9.90
2022-09-11T18:20:06.585Z,9.10
2022-09-11T18:22:37.249Z,5.70
2022-09-11T18:25:09.746Z,5.40
2022-09-11T18:27:37.190Z,9.10
2022-09-11T18:30:04.799Z,7.40
2022-09-11T18:32:31.530Z,5.30
2022-09-11T18:35:00.119Z,9.50
2022-09-11T18:37:27.060Z,6.80
2022-09-11T18:39:53.910Z,9.60
2022-09-11T18:42:20.904Z,5.40
2022-09-11T18:44:47.796Z,6.00
2022-09-11T18:47:14.424Z,6.00
2022-09-11T18:49:41.383Z,8.30
2022-09-11T18:52:08.470Z,8.10
2022-09-11T18:54:38.817Z,6.90
2022-09-11T18:57:05.817Z,7.40
2022-09-11T18:59:36.701Z,8.00
2022-09-11T19:26:23.053Z,5.90
2022-09-11T19:39:05.308Z,4.00
2022-09-11T21:03:44.115Z,1.30
2022-09-11T21:06:10.955Z,2.40
2022-09-11T21:08:39.468Z,2.10
2022-09-11T21:11:06.462Z,2.10
2022-09-11T21:13:37.650Z,3.00
2022-09-11T21:16:06.765Z,2.50
2022-09-11T21:18:34.123Z,2.70
2022-09-11T21:21:00.916Z,1.70
2022-09-11T21:23:27.833Z,2.30
2022-09-11T21:25:57.337Z,2.00
2022-09-11T21:28:24.062Z,3.30
2022-09-11T21:30:50.797Z,2.60
2022-09-11T21:33:18.285Z,3.10
2022-09-11T21:35:51.900Z,5.00
2022-09-11T21:38:28.037Z,4.40
2022-09-11T21:40:56.578Z,2.40
2022-09-11T21:43:23.459Z,3.50
2022-09-11T21:45:52.239Z,3.10
2022-09-11T21:48:19.599Z,5.90
2022-09-11T21:50:46.374Z,3.60
2022-09-11T21:53:13.031Z,2.80
2022-09-11T21:55:41.971Z,2.60
2022-09-11T21:58:14.742Z,3.60
2022-09-11T22:00:43.132Z,2.70
2022-09-11T22:03:15.537Z,2.70
2022-09-11T22:05:44.425Z,1.90
2022-09-11T22:08:13.051Z,2.80
2022-09-11T22:10:47.933Z,5.90
2022-09-11T22:13:16.784Z,4.10
2022-09-11T22:15:49.284Z,1.90
2022-09-11T22:18:17.291Z,1.40
2022-09-11T22:20:45.403Z,2.70
2022-09-11T22:23:15.435Z,2.40
2022-09-11T22:25:43.475Z,2.40
2022-09-11T22:28:10.083Z,1.80
2022-09-11T22:30:41.306Z,1.80
2022-09-11T22:33:08.059Z,2.10
2022-09-11T22:35:35.023Z,1.20
2022-09-11T22:38:01.642Z,1.90
2022-09-11T22:40:28.352Z,1.60
2022-09-11T22:42:57.364Z,3.70
2022-09-11T22:45:24.024Z,2.10
2022-09-11T22:47:50.761Z,2.60
2022-09-11T22:50:17.657Z,2.70
2022-09-11T22:52:47.901Z,1.10
2022-09-11T22:55:15.087Z,3.90
2022-09-11T22:57:41.759Z,3.50
2022-09-11T23:00:11.394Z,5.00
2022-09-11T23:02:38.442Z,1.80
2022-09-11T23:05:25.838Z,2.60
2022-09-11T23:07:54.153Z,4.20
2022-09-11T23:10:23.021Z,2.70
2022-09-11T23:12:53.558Z,2.40
2022-09-11T23:15:21.756Z,7.10
2022-09-11T23:17:48.398Z,3.00
2022-09-11T23:20:15.658Z,2.40
2022-09-11T23:22:42.612Z,3.10
2022-09-11T23:25:10.652Z,3.90
2022-09-11T23:27:37.477Z,3.30
2022-09-11T23:30:04.831Z,3.90
2022-09-11T23:32:31.506Z,3.20
2022-09-11T23:34:58.408Z,6.50
2022-09-11T23:37:25.074Z,2.80
2022-09-11T23:39:52.392Z,3.40
2022-09-11T23:42:19.103Z,3.60
2022-09-11T23:44:45.770Z,3.50
2022-09-11T23:47:12.404Z,2.80
2022-09-11T23:49:38.939Z,4.70
2022-09-11T23:52:08.821Z,2.70
2022-09-11T23:54:35.629Z,2.40
2022-09-11T23:57:03.746Z,3.70
2022-09-11T23:59:35.532Z,3.90
